Time;durP1;ratioP1;P1;durP2;ratioP2;P2;SDS_P1;SDS_P2;PMS_P1;PMS_P2;Temp;Humidity;BMP_temperature;BMP_pressure;BME280_temperature;BME280_humidity;BME280_pressure;Samples;Min_cycle;Max_cycle;Signal;HPM_P1;HPM_P2
2024/01/22 00:00:39;;;;;;;9.77;5.13;;;7.00;99.90;;;;;;4986203;28;20040;-74
2024/01/22 00:03:04;;;;;;;9.20;4.95;;;7.00;99.90;;;;;;4979333;28;20042;-74
2024/01/22 00:05:30;;;;;;;9.35;5.38;;;7.00;99.90;;;;;;5026528;28;20125;-74
2024/01/22 00:07:56;;;;;;;12.07;5.30;;;7.00;99.90;;;;;;4993016;28;20374;-74
2024/01/22 00:10:22;;;;;;;8.98;5.28;;;7.00;99.90;;;;;;4997300;28;20032;-74
2024/01/22 00:12:48;;;;;;;10.63;5.32;;;7.00;99.90;;;;;;4976267;28;20340;-75
2024/01/22 00:15:13;;;;;;;8.07;4.82;;;7.00;99.90;;;;;;4994560;28;20505;-74
2024/01/22 00:17:39;;;;;;;9.77;5.07;;;7.10;99.90;;;;;;4981378;28;20053;-74
2024/01/22 00:20:07;;;;;;;10.27;5.25;;;7.10;99.90;;;;;;4998434;28;20188;-74
2024/01/22 00:22:33;;;;;;;9.88;5.07;;;7.10;99.90;;;;;;4997039;28;20137;-74
2024/01/22 00:24:58;;;;;;;9.43;5.38;;;7.10;99.90;;;;;;4985241;28;20050;-74
2024/01/22 00:27:24;;;;;;;9.13;4.82;;;7.20;99.90;;;;;;4993882;28;20406;-74
2024/01/22 00:29:50;;;;;;;8.05;4.85;;;7.10;99.90;;;;;;4986446;28;20043;-74
2024/01/22 00:32:15;;;;;;;11.40;5.47;;;7.20;99.90;;;;;;4981254;28;20046;-74
2024/01/22 00:34:41;;;;;;;7.57;5.18;;;7.10;99.90;;;;;;4995423;28;20042;-74
2024/01/22 00:37:07;;;;;;;8.43;5.03;;;7.30;99.90;;;;;;4984483;28;20101;-74
2024/01/22 00:39:33;;;;;;;8.35;5.10;;;7.30;99.90;;;;;;4977909;28;20073;-74
2024/01/22 00:41:59;;;;;;;9.68;4.82;;;7.30;99.90;;;;;;4982353;28;20509;-74
2024/01/22 00:44:25;;;;;;;7.90;4.82;;;7.30;99.90;;;;;;4984953;28;20119;-74
2024/01/22 00:46:50;;;;;;;10.27;4.93;;;7.30;99.90;;;;;;4984088;28;20064;-74
2024/01/22 00:49:16;;;;;;;9.18;5.20;;;7.40;99.90;;;;;;4984526;28;20041;-74
2024/01/22 00:51:42;;;;;;;7.38;4.30;;;7.50;99.90;;;;;;4982260;28;20042;-74
2024/01/22 00:54:08;;;;;;;7.93;4.88;;;7.50;99.90;;;;;;4973369;28;20125;-74
2024/01/22 00:56:34;;;;;;;8.52;4.95;;;7.50;99.90;;;;;;5000991;28;20033;-74
2024/01/22 00:59:00;;;;;;;8.68;4.88;;;7.50;99.90;;;;;;5007640;28;20045;-74
2024/01/22 01:01:26;;;;;;;6.75;4.75;;;7.70;99.90;;;;;;4998824;28;20038;-74
2024/01/22 01:03:51;;;;;;;8.75;5.20;;;7.70;99.90;;;;;;4984531;28;20092;-74
2024/01/22 01:06:17;;;;;;;7.70;5.03;;;7.60;99.90;;;;;;4996820;28;20053;-74
2024/01/22 01:08:43;;;;;;;9.40;5.10;;;7.60;99.90;;;;;;5016202;28;20037;-74
2024/01/22 01:11:09;;;;;;;9.55;5.00;;;7.50;99.90;;;;;;4993319;28;20498;-74
2024/01/22 01:13:35;;;;;;;11.07;4.55;;;7.60;99.90;;;;;;4999023;28;20046;-74
2024/01/22 01:16:01;;;;;;;9.20;4.95;;;7.60;99.90;;;;;;4989367;28;20052;-74
2024/01/22 01:18:27;;;;;;;11.35;5.15;;;7.60;99.90;;;;;;5000009;28;20046;-74
2024/01/22 01:20:52;;;;;;;9.35;4.68;;;7.70;99.90;;;;;;4983292;28;20829;-74
2024/01/22 01:23:18;;;;;;;7.28;4.68;;;7.70;99.90;;;;;;4979795;28;20113;-74
2024/01/22 01:25:44;;;;;;;7.75;4.90;;;7.70;99.90;;;;;;5010597;28;20437;-74
2024/01/22 01:28:10;;;;;;;7.78;4.70;;;7.80;99.90;;;;;;5021544;28;20097;-74
2024/01/22 01:30:35;;;;;;;7.20;5.15;;;7.80;99.90;;;;;;4995592;28;20109;-74
2024/01/22 01:33:01;;;;;;;6.20;4.22;;;7.80;99.90;;;;;;4979933;28;20120;-74
2024/01/22 01:35:27;;;;;;;9.07;4.38;;;8.00;99.90;;;;;;4978107;28;20493;-74
2024/01/22 01:37:53;;;;;;;6.68;4.50;;;8.00;99.90;;;;;;4985551;28;20544;-74
2024/01/22 01:40:18;;;;;;;7.80;4.63;;;8.00;99.90;;;;;;4981262;28;20063;-74
2024/01/22 01:42:44;;;;;;;7.80;4.55;;;8.00;99.90;;;;;;4981690;28;20037;-74
2024/01/22 01:45:13;;;;;;;6.38;4.55;;;8.00;99.90;;;;;;4994338;28;20121;-74
2024/01/22 01:47:45;;;;;;;7.05;5.28;;;8.10;99.90;;;;;;4994696;28;20061;-74
2024/01/22 01:50:11;;;;;;;11.20;4.65;;;8.20;99.90;;;;;;4996395;28;20053;-74
2024/01/22 01:52:37;;;;;;;9.68;5.07;;;8.10;99.90;;;;;;4998093;28;20624;-74
2024/01/22 01:55:04;;;;;;;10.57;5.07;;;8.20;99.90;;;;;;4985840;28;20104;-74
2024/01/22 01:57:29;;;;;;;11.50;4.70;;;8.30;99.90;;;;;;4977698;28;20111;-74
2024/01/22 01:59:56;;;;;;;12.07;4.53;;;8.40;99.90;;;;;;4996852;28;20049;-74
2024/01/22 02:02:22;;;;;;;8.38;4.43;;;8.40;99.90;;;;;;4980517;28;20045;-74
2024/01/22 02:04:48;;;;;;;5.95;4.05;;;8.40;99.90;;;;;;4997320;28;20106;-74
2024/01/22 02:07:14;;;;;;;10.02;4.90;;;8.40;99.90;;;;;;4996182;28;20138;-74
2024/01/22 02:09:51;;;;;;;8.13;4.53;;;8.20;99.90;;;;;;4983851;28;20088;-74
2024/01/22 02:12:18;;;;;;;6.88;4.35;;;8.30;99.90;;;;;;5014717;28;20069;-74
2024/01/22 02:14:45;;;;;;;6.93;4.60;;;8.40;99.90;;;;;;4989591;28;20077;-74
2024/01/22 02:17:11;;;;;;;6.78;4.72;;;8.30;99.90;;;;;;4997169;28;20060;-74
2024/01/22 02:19:36;;;;;;;11.23;4.05;;;8.30;99.90;;;;;;4981891;28;20486;-74
2024/01/22 02:22:03;;;;;;;7.78;4.60;;;8.40;99.90;;;;;;4996462;28;20103;-74
2024/01/22 02:24:28;;;;;;;9.60;4.90;;;8.30;99.90;;;;;;5016881;28;20100;-74
2024/01/22 02:26:54;;;;;;;7.55;4.82;;;8.40;99.90;;;;;;4994483;28;20041;-74
2024/01/22 02:29:20;;;;;;;6.78;4.68;;;8.40;99.90;;;;;;5015639;28;20553;-74
2024/01/22 02:31:50;;;;;;;9.27;5.10;;;8.40;99.90;;;;;;5005521;28;20057;-74
2024/01/22 02:34:16;;;;;;;8.18;4.70;;;8.40;99.90;;;;;;4996013;28;20089;-74
2024/01/22 02:36:42;;;;;;;9.68;4.57;;;8.50;99.90;;;;;;4979262;28;20064;-74
2024/01/22 02:39:08;;;;;;;9.30;4.40;;;8.50;99.90;;;;;;5024440;28;20050;-74
2024/01/22 02:41:34;;;;;;;6.78;3.53;;;8.70;99.90;;;;;;4987482;28;20049;-74
2024/01/22 02:43:59;;;;;;;7.25;3.85;;;8.60;99.90;;;;;;4977670;28;20049;-74
2024/01/22 02:46:25;;;;;;;7.25;3.75;;;8.70;99.90;;;;;;4983944;28;20037;-74
2024/01/22 02:48:51;;;;;;;7.57;4.35;;;8.70;99.90;;;;;;4981467;28;20445;-75
2024/01/22 02:51:17;;;;;;;5.93;4.20;;;8.70;99.90;;;;;;4999710;28;20496;-74
2024/01/22 02:53:43;;;;;;;6.40;3.95;;;8.80;99.90;;;;;;5000662;28;20069;-74
2024/01/22 02:56:08;;;;;;;8.40;3.92;;;8.80;99.90;;;;;;4979999;28;20041;-74
2024/01/22 02:58:34;;;;;;;7.10;3.60;;;8.90;99.90;;;;;;5009294;28;20568;-74
2024/01/22 03:01:00;;;;;;;11.73;3.90;;;8.90;99.90;;;;;;4994711;28;20808;-74
2024/01/22 03:03:26;;;;;;;5.32;3.50;;;9.00;99.90;;;;;;4986634;28;20034;-74
2024/01/22 03:05:51;;;;;;;7.18;4.03;;;8.90;99.90;;;;;;4991139;28;20437;-74
2024/01/22 03:08:17;;;;;;;9.32;4.13;;;8.90;99.90;;;;;;4992658;28;20046;-74
2024/01/22 03:10:44;;;;;;;7.95;3.80;;;9.00;99.90;;;;;;4984155;28;20053;-75
2024/01/22 03:13:09;;;;;;;7.65;4.05;;;9.00;99.90;;;;;;4996737;28;20045;-74
2024/01/22 03:15:35;;;;;;;7.32;4.07;;;9.00;99.90;;;;;;4984818;28;20060;-74
2024/01/22 03:18:01;;;;;;;7.13;3.88;;;9.10;99.90;;;;;;4998405;28;20100;-74
2024/01/22 03:20:27;;;;;;;7.50;3.75;;;9.00;99.90;;;;;;4991300;28;20042;-74
2024/01/22 03:22:52;;;;;;;5.10;3.60;;;9.00;99.90;;;;;;4979743;28;20405;-74
2024/01/22 03:25:18;;;;;;;6.57;3.97;;;9.00;99.90;;;;;;4985416;28;20323;-74
2024/01/22 03:27:44;;;;;;;6.88;3.72;;;8.90;99.90;;;;;;4997634;28;20044;-74
2024/01/22 03:30:10;;;;;;;6.72;4.45;;;9.00;99.90;;;;;;4999408;28;20132;-74
2024/01/22 03:32:36;;;;;;;5.75;3.78;;;8.90;99.90;;;;;;5015285;28;20050;-74
2024/01/22 03:35:02;;;;;;;5.45;4.00;;;8.90;99.90;;;;;;4983619;28;20104;-74
2024/01/22 03:37:28;;;;;;;6.43;3.95;;;8.90;99.90;;;;;;4997260;28;20096;-74
2024/01/22 03:39:53;;;;;;;6.82;4.28;;;8.90;99.90;;;;;;4983418;28;20065;-74
2024/01/22 03:42:19;;;;;;;8.10;3.83;;;9.00;99.90;;;;;;4994751;28;20057;-74
2024/01/22 03:44:47;;;;;;;8.77;3.80;;;8.90;99.90;;;;;;4983982;28;20052;-74
2024/01/22 03:47:13;;;;;;;6.03;3.90;;;9.00;99.90;;;;;;4995966;28;20128;-74
2024/01/22 03:49:39;;;;;;;6.75;3.60;;;9.00;99.90;;;;;;4984321;28;20037;-74
2024/01/22 03:52:05;;;;;;;5.53;3.63;;;9.00;99.90;;;;;;4985127;28;20234;-74
2024/01/22 03:54:31;;;;;;;6.57;3.85;;;9.00;99.90;;;;;;5002107;28;20046;-74
2024/01/22 03:56:56;;;;;;;7.03;3.80;;;9.00;99.90;;;;;;5033496;28;20497;-74
2024/01/22 03:59:23;;;;;;;4.93;3.35;;;9.00;99.90;;;;;;5018697;28;20107;-74
2024/01/22 04:01:54;;;;;;;7.50;3.53;;;9.00;99.90;;;;;;4988607;28;20053;-74
2024/01/22 04:04:20;;;;;;;6.82;3.70;;;9.10;99.90;;;;;;5021163;28;20049;-74
2024/01/22 04:06:46;;;;;;;6.95;3.97;;;9.00;99.90;;;;;;5008743;28;21071;-74
2024/01/22 04:09:11;;;;;;;6.38;3.22;;;9.10;99.90;;;;;;5002815;28;20041;-74
2024/01/22 04:11:37;;;;;;;4.50;3.13;;;9.20;99.90;;;;;;4985749;28;20044;-74
2024/01/22 04:14:03;;;;;;;5.53;3.60;;;9.20;99.90;;;;;;5022208;28;20134;-74
2024/01/22 04:16:29;;;;;;;7.57;3.60;;;9.20;99.90;;;;;;4998677;28;20137;-74
2024/01/22 04:18:55;;;;;;;6.65;3.75;;;9.20;99.90;;;;;;5000740;28;20050;-74
2024/01/22 04:21:22;;;;;;;5.75;3.75;;;9.20;99.90;;;;;;4981475;28;20030;-74
2024/01/22 04:23:48;;;;;;;5.85;3.30;;;9.20;99.90;;;;;;4980271;28;20042;-74
2024/01/22 04:26:14;;;;;;;6.88;3.17;;;9.30;99.90;;;;;;4983258;28;20143;-74
2024/01/22 04:28:39;;;;;;;5.18;3.10;;;9.30;99.90;;;;;;4991861;28;20045;-74
2024/01/22 04:31:06;;;;;;;5.18;3.28;;;9.30;99.90;;;;;;4989445;28;20042;-74
2024/01/22 04:33:32;;;;;;;3.97;3.20;;;9.30;99.90;;;;;;5000029;28;20477;-74
2024/01/22 04:35:58;;;;;;;5.45;3.33;;;9.30;99.90;;;;;;5003000;28;20042;-74
2024/01/22 04:38:25;;;;;;;7.22;3.63;;;9.40;99.90;;;;;;5003064;28;20093;-74
2024/01/22 04:40:51;;;;;;;5.40;3.05;;;9.30;99.90;;;;;;4981921;28;20044;-74
2024/01/22 04:43:21;;;;;;;3.75;2.65;;;9.40;99.90;;;;;;4988191;28;20037;-74
2024/01/22 04:45:48;;;;;;;4.18;3.28;;;9.40;99.90;;;;;;4987253;28;20038;-74
2024/01/22 04:48:14;;;;;;;4.93;3.30;;;9.40;99.90;;;;;;4985990;28;20069;-74
2024/01/22 04:50:40;;;;;;;4.97;3.10;;;9.40;99.90;;;;;;5031258;28;20034;-74
2024/01/22 04:53:06;;;;;;;4.22;3.10;;;9.50;99.90;;;;;;4986929;28;20045;-74
2024/01/22 04:55:32;;;;;;;4.90;3.00;;;9.50;99.90;;;;;;5035821;28;20044;-74
2024/01/22 04:57:57;;;;;;;9.18;3.10;;;9.50;99.90;;;;;;4995448;28;20189;-74
2024/01/22 05:00:23;;;;;;;4.35;3.20;;;9.50;99.90;;;;;;4987924;28;20507;-74
2024/01/22 05:02:49;;;;;;;4.53;3.00;;;9.60;99.90;;;;;;4987605;28;20045;-74
2024/01/22 05:05:15;;;;;;;3.90;2.80;;;9.70;99.90;;;;;;4998818;28;20484;-74
2024/01/22 05:07:41;;;;;;;3.13;2.60;;;9.70;99.90;;;;;;5003009;28;20046;-74
2024/01/22 05:10:13;;;;;;;4.40;3.08;;;9.70;99.90;;;;;;4998770;28;20508;-74
2024/01/22 05:12:39;;;;;;;4.95;3.08;;;9.70;99.90;;;;;;5005579;28;20462;-74
2024/01/22 05:15:06;;;;;;;3.85;3.22;;;9.70;99.90;;;;;;4991346;28;20066;-74
2024/01/22 05:17:32;;;;;;;3.78;2.88;;;9.90;99.90;;;;;;4994471;28;20064;-74
2024/01/22 05:19:59;;;;;;;4.32;2.63;;;9.90;99.90;;;;;;4992757;28;20112;-74
2024/01/22 05:22:24;;;;;;;4.18;2.85;;;10.00;99.90;;;;;;4984995;28;20038;-74
2024/01/22 05:24:50;;;;;;;4.15;3.17;;;10.00;99.90;;;;;;5002208;28;20457;-74
2024/01/22 05:27:16;;;;;;;3.85;3.00;;;10.10;99.90;;;;;;4985417;28;20420;-74
2024/01/22 05:29:43;;;;;;;3.78;2.83;;;10.20;99.90;;;;;;4980932;28;20759;-74
2024/01/22 05:32:09;;;;;;;4.68;2.63;;;10.20;99.90;;;;;;5000900;28;20049;-74
2024/01/22 05:34:35;;;;;;;2.78;2.35;;;10.30;99.90;;;;;;5012865;28;20121;-74
2024/01/22 05:37:01;;;;;;;3.10;2.42;;;10.40;99.90;;;;;;4981007;28;20164;-74
2024/01/22 05:39:27;;;;;;;5.65;2.58;;;10.40;99.90;;;;;;4991701;28;20046;-74
2024/01/22 05:41:54;;;;;;;3.28;2.40;;;10.50;99.90;;;;;;4995836;28;20734;-74
2024/01/22 05:44:20;;;;;;;5.47;2.70;;;10.50;99.90;;;;;;4983782;28;20046;-74
2024/01/22 05:46:46;;;;;;;2.90;2.10;;;10.50;99.90;;;;;;4984445;28;20480;-74
2024/01/22 05:49:11;;;;;;;5.50;2.00;;;10.60;99.90;;;;;;4984737;28;20049;-74
2024/01/22 05:51:37;;;;;;;3.90;2.00;;;10.60;99.90;;;;;;4983937;28;20041;-74
2024/01/22 05:54:03;;;;;;;2.85;2.00;;;10.60;99.90;;;;;;4984209;28;20500;-74
2024/01/22 05:56:29;;;;;;;3.35;2.10;;;10.70;99.90;;;;;;4999844;28;20041;-74
2024/01/22 05:58:56;;;;;;;2.88;1.50;;;10.70;99.90;;;;;;4988836;28;20112;-74
2024/01/22 06:01:23;;;;;;;2.25;1.63;;;10.80;99.90;;;;;;4997901;28;21067;-74
2024/01/22 06:03:49;;;;;;;4.95;1.98;;;10.70;99.90;;;;;;4999890;28;20038;-74
2024/01/22 06:06:15;;;;;;;2.75;1.40;;;10.80;99.90;;;;;;4981969;28;20386;-73
2024/01/22 06:08:42;;;;;;;1.58;1.48;;;10.90;99.90;;;;;;4994978;28;20092;-74
2024/01/22 06:11:08;;;;;;;3.75;1.40;;;11.00;99.90;;;;;;5008704;28;20046;-74
2024/01/22 06:13:41;;;;;;;4.50;1.30;;;11.00;99.90;;;;;;4994705;28;20038;-74
2024/01/22 06:16:12;;;;;;;1.98;1.33;;;11.10;99.90;;;;;;4999391;28;20073;-74
2024/01/22 06:18:39;;;;;;;3.65;1.77;;;11.20;99.90;;;;;;4999046;28;20124;-74
2024/01/22 06:21:06;;;;;;;6.57;2.03;;;11.00;99.90;;;;;;5028947;28;20073;-74
2024/01/22 06:23:32;;;;;;;4.90;1.88;;;11.10;99.90;;;;;;5026251;28;20103;-74
2024/01/22 06:25:58;;;;;;;3.58;1.52;;;11.00;99.90;;;;;;4995647;28;21720;-74
2024/01/22 06:28:25;;;;;;;4.40;1.30;;;11.00;99.90;;;;;;4980175;28;20115;-74
2024/01/22 06:30:51;;;;;;;4.70;1.40;;;11.00;99.90;;;;;;5012896;28;20068;-74
2024/01/22 06:33:18;;;;;;;5.78;1.40;;;11.00;99.90;;;;;;5002063;28;20049;-74
2024/01/22 06:35:44;;;;;;;3.85;1.40;;;11.00;99.90;;;;;;4977444;28;20045;-74
2024/01/22 06:38:10;;;;;;;3.08;1.50;;;11.00;99.90;;;;;;4980411;28;20167;-73
2024/01/22 06:40:36;;;;;;;3.60;1.60;;;11.00;99.90;;;;;;4984106;28;20045;-74
2024/01/22 06:43:02;;;;;;;8.10;1.50;;;11.00;99.90;;;;;;4985175;28;20095;-74
2024/01/22 06:45:28;;;;;;;3.78;1.60;;;11.00;99.90;;;;;;4998911;28;20566;-73
2024/01/22 06:47:54;;;;;;;4.95;1.75;;;11.10;99.90;;;;;;4994522;28;20053;-74
2024/01/22 06:50:19;;;;;;;2.78;1.40;;;11.10;99.90;;;;;;5001388;28;20245;-73
2024/01/22 06:52:46;;;;;;;4.85;1.58;;;11.20;99.90;;;;;;5004408;28;20421;-74
2024/01/22 06:55:12;;;;;;;6.70;1.55;;;11.10;99.90;;;;;;5014955;28;20066;-74
2024/01/22 06:57:38;;;;;;;4.75;1.63;;;11.10;99.90;;;;;;4992481;28;20052;-74
2024/01/22 07:00:07;;;;;;;5.35;1.60;;;11.00;99.90;;;;;;5002217;28;20054;-74
2024/01/22 07:02:41;;;;;;;6.53;1.75;;;11.10;99.90;;;;;;4996614;28;20579;-74
2024/01/22 07:05:08;;;;;;;5.47;1.73;;;11.00;99.90;;;;;;4997097;28;20135;-74
2024/01/22 07:07:34;;;;;;;6.75;1.90;;;11.00;99.90;;;;;;4995382;28;20779;-74
2024/01/22 07:09:59;;;;;;;8.40;2.10;;;11.00;99.90;;;;;;4986295;28;20042;-74
2024/01/22 07:12:25;;;;;;;6.57;2.58;;;11.00;99.90;;;;;;4997980;28;20492;-73
2024/01/22 07:14:51;;;;;;;9.48;2.45;;;11.10;99.90;;;;;;4997625;28;20046;-73
2024/01/22 07:17:21;;;;;;;6.85;2.70;;;11.10;99.90;;;;;;4999290;28;20113;-74
2024/01/22 07:19:47;;;;;;;9.38;2.35;;;11.00;99.90;;;;;;4983961;28;20053;-73
2024/01/22 07:22:13;;;;;;;11.35;2.90;;;11.00;99.90;;;;;;4986827;28;20045;-74
2024/01/22 07:24:39;;;;;;;8.32;2.60;;;11.00;99.90;;;;;;4997765;28;20128;-74
2024/01/22 07:27:05;;;;;;;14.43;3.03;;;11.00;99.90;;;;;;4982883;28;20120;-73
2024/01/22 07:29:31;;;;;;;9.90;2.90;;;10.90;99.90;;;;;;4981497;28;20469;-73
2024/01/22 07:31:57;;;;;;;15.18;3.65;;;11.00;99.90;;;;;;4988773;28;20791;-73
2024/01/22 07:34:23;;;;;;;15.48;3.63;;;10.90;99.90;;;;;;4988512;28;20042;-74
2024/01/22 07:36:50;;;;;;;13.77;3.85;;;11.00;99.90;;;;;;5001356;28;20094;-74
2024/01/22 07:39:16;;;;;;;13.07;3.63;;;11.00;99.90;;;;;;5008287;28;20046;-73
2024/01/22 07:41:41;;;;;;;13.98;4.07;;;11.10;99.90;;;;;;4999509;28;20050;-73
2024/01/22 07:44:08;;;;;;;16.40;3.95;;;11.00;99.90;;;;;;5005594;28;20037;-74
2024/01/22 07:46:34;;;;;;;14.35;3.28;;;10.90;99.90;;;;;;5000583;28;20050;-74
2024/01/22 07:49:00;;;;;;;15.50;3.63;;;10.90;99.90;;;;;;4988256;28;20038;-74
2024/01/22 07:51:26;;;;;;;19.60;3.97;;;10.90;99.90;;;;;;5019348;28;20053;-74
2024/01/22 07:53:51;;;;;;;17.85;4.15;;;10.90;99.90;;;;;;4994448;28;20057;-74
2024/01/22 07:56:17;;;;;;;13.05;3.80;;;10.80;99.90;;;;;;5005451;28;20555;-74
2024/01/22 07:58:44;;;;;;;14.55;4.15;;;10.90;99.90;;;;;;5001548;28;20046;-74
2024/01/22 08:01:10;;;;;;;13.85;3.47;;;10.90;99.90;;;;;;5002136;28;20417;-74
2024/01/22 08:03:36;;;;;;;16.33;4.18;;;10.80;99.90;;;;;;5008907;28;20120;-74
2024/01/22 08:06:05;;;;;;;18.40;4.15;;;10.80;99.90;;;;;;5005842;28;20548;-74
2024/01/22 08:08:31;;;;;;;17.55;4.07;;;10.70;99.90;;;;;;4981715;28;20041;-73
2024/01/22 08:10:57;;;;;;;18.85;4.32;;;10.70;99.90;;;;;;4996605;28;20431;-74
2024/01/22 08:13:23;;;;;;;17.90;4.55;;;10.80;99.90;;;;;;5000362;28;20025;-73
2024/01/22 08:15:50;;;;;;;17.15;5.18;;;10.70;99.90;;;;;;4999981;28;20049;-74
2024/01/22 08:18:16;;;;;;;23.40;5.03;;;10.70;99.90;;;;;;4996062;28;20137;-74
2024/01/22 08:20:42;;;;;;;21.77;4.97;;;10.70;99.90;;;;;;4985653;28;20164;-74
2024/01/22 08:23:09;;;;;;;26.25;4.80;;;10.70;99.90;;;;;;4980761;28;20057;-74
2024/01/22 08:25:35;;;;;;;32.80;5.75;;;10.70;99.90;;;;;;5019537;28;20493;-73
2024/01/22 08:28:02;;;;;;;28.38;5.95;;;10.70;99.90;;;;;;5017317;28;20185;-73
2024/01/22 08:30:29;;;;;;;27.05;6.18;;;10.60;99.90;;;;;;5003508;28;20050;-73
2024/01/22 08:32:55;;;;;;;25.25;5.07;;;10.60;99.90;;;;;;4987338;28;20492;-74
2024/01/22 08:35:21;;;;;;;24.10;5.13;;;10.60;99.90;;;;;;4989573;28;20132;-73
2024/01/22 08:37:52;;;;;;;27.52;5.75;;;10.60;99.90;;;;;;4993760;28;20140;-74
2024/01/22 08:40:21;;;;;;;17.75;4.40;;;10.60;99.90;;;;;;5030193;28;20042;-74
2024/01/22 08:42:55;;;;;;;17.95;4.78;;;10.40;99.90;;;;;;4975858;28;20050;-74
2024/01/22 08:45:22;;;;;;;17.58;4.03;;;10.30;99.90;;;;;;4986233;28;20570;-74
2024/01/22 08:47:51;;;;;;;20.08;4.43;;;10.10;99.90;;;;;;4999251;28;20523;-74
2024/01/22 08:50:19;;;;;;;21.75;4.50;;;10.20;99.90;;;;;;5000658;28;20046;-73
2024/01/22 08:52:50;;;;;;;24.70;5.35;;;10.10;99.90;;;;;;5014403;28;20046;-74
2024/01/22 08:55:18;;;;;;;23.23;6.15;;;10.10;99.90;;;;;;5006348;28;20088;-74
2024/01/22 08:57:45;;;;;;;32.67;5.93;;;10.10;99.90;;;;;;4989440;28;20299;-73
2024/01/22 09:00:11;;;;;;;31.73;7.18;;;10.10;99.90;;;;;;5001684;28;20523;-73
2024/01/22 09:02:43;;;;;;;31.77;7.03;;;10.10;99.90;;;;;;4997234;28;20057;-73
2024/01/22 09:05:10;;;;;;;32.47;7.40;;;10.10;99.90;;;;;;5000023;28;20100;-73
2024/01/22 09:07:36;;;;;;;37.63;8.15;;;10.10;99.90;;;;;;5001478;28;20046;-73
2024/01/22 09:10:07;;;;;;;41.28;7.82;;;10.10;99.90;;;;;;5002023;28;20045;-73
2024/01/22 09:12:34;;;;;;;36.97;7.68;;;10.10;99.90;;;;;;4989056;28;20085;-73
2024/01/22 09:15:01;;;;;;;37.63;7.68;;;10.10;99.90;;;;;;5014182;28;20046;-73
2024/01/22 09:17:27;;;;;;;42.53;8.13;;;10.00;99.90;;;;;;5027095;28;20074;-73
2024/01/22 09:19:52;;;;;;;35.10;7.53;;;10.00;99.90;;;;;;4984625;28;20085;-73
2024/01/22 09:22:19;;;;;;;42.72;8.02;;;10.00;99.90;;;;;;4999687;28;20056;-73
2024/01/22 09:24:45;;;;;;;40.50;7.43;;;10.00;99.90;;;;;;4980526;28;20046;-74
2024/01/22 09:27:11;;;;;;;39.10;7.72;;;9.90;99.90;;;;;;4995828;28;20044;-73
2024/01/22 09:29:37;;;;;;;49.63;8.43;;;10.00;99.90;;;;;;5027592;28;20999;-74
2024/01/22 09:32:03;;;;;;;44.40;8.88;;;10.10;99.90;;;;;;5017960;28;20145;-73
2024/01/22 09:34:29;;;;;;;41.58;8.07;;;10.10;99.90;;;;;;4982027;28;20058;-73
2024/01/22 09:36:55;;;;;;;37.20;6.78;;;10.00;99.90;;;;;;5016011;28;20065;-73
2024/01/22 09:39:20;;;;;;;38.03;8.27;;;10.10;99.90;;;;;;5002731;28;20038;-74
2024/01/22 09:41:48;;;;;;;32.42;6.50;;;10.10;99.90;;;;;;4999127;28;20042;-73
2024/01/22 09:44:14;;;;;;;37.28;7.50;;;10.00;99.90;;;;;;4974314;28;20144;-73
2024/01/22 09:46:41;;;;;;;35.45;7.75;;;10.00;99.90;;;;;;4983390;28;20046;-73
2024/01/22 09:49:06;;;;;;;39.22;6.78;;;10.00;99.90;;;;;;4979758;28;20089;-73
2024/01/22 09:51:34;;;;;;;40.90;8.05;;;10.00;99.90;;;;;;5031189;28;21144;-74
2024/01/22 09:54:09;;;;;;;36.78;6.80;;;10.00;99.90;;;;;;4996142;28;20046;-73
2024/01/22 09:56:36;;;;;;;31.48;6.47;;;10.00;99.90;;;;;;5031271;28;20048;-73
2024/01/22 09:59:12;;;;;;;33.08;6.72;;;10.10;99.90;;;;;;4989820;28;20035;-74
2024/01/22 10:01:39;;;;;;;34.65;6.05;;;10.00;99.90;;;;;;4983159;28;20113;-73
2024/01/22 10:04:05;;;;;;;32.08;6.13;;;10.00;99.90;;;;;;4995522;28;20160;-74
2024/01/22 10:06:36;;;;;;;36.55;6.43;;;10.10;99.90;;;;;;4999680;28;20497;-74
2024/01/22 10:09:02;;;;;;;30.65;6.30;;;10.10;99.90;;;;;;5000842;28;20045;-73
2024/01/22 10:11:30;;;;;;;29.65;5.88;;;10.10;99.90;;;;;;4998284;28;20044;-74
2024/01/22 10:13:56;;;;;;;28.35;6.20;;;10.00;99.90;;;;;;4996225;28;20133;-74
2024/01/22 10:16:26;;;;;;;38.75;6.72;;;10.00;99.90;;;;;;4987512;28;20111;-74
2024/01/22 10:18:59;;;;;;;29.75;6.43;;;10.00;99.90;;;;;;4984456;28;20077;-74
2024/01/22 10:21:26;;;;;;;32.95;6.05;;;10.00;99.90;;;;;;4980994;28;20045;-73
2024/01/22 10:23:59;;;;;;;29.42;6.30;;;10.00;99.90;;;;;;4983790;28;20088;-74
2024/01/22 10:26:25;;;;;;;29.25;6.32;;;9.90;99.90;;;;;;4982625;28;20486;-74
2024/01/22 10:28:51;;;;;;;33.80;6.20;;;9.80;99.90;;;;;;4983132;28;20057;-73
2024/01/22 10:31:17;;;;;;;29.73;6.30;;;9.80;99.90;;;;;;4993600;28;20112;-74
2024/01/22 10:33:43;;;;;;;29.15;5.28;;;9.70;99.90;;;;;;5015970;28;20711;-74
2024/01/22 10:36:18;;;;;;;27.30;6.82;;;9.70;99.90;;;;;;4977808;28;20080;-74
2024/01/22 10:38:48;;;;;;;28.05;5.63;;;9.80;99.90;;;;;;4997801;28;20691;-74
2024/01/22 10:41:22;;;;;;;20.85;5.18;;;9.90;99.90;;;;;;4997475;28;20034;-74
2024/01/22 10:43:49;;;;;;;25.58;5.47;;;9.90;99.90;;;;;;4998326;28;20049;-74
2024/01/22 10:46:17;;;;;;;30.58;5.95;;;9.90;99.90;;;;;;5014575;28;20048;-74
2024/01/22 10:48:44;;;;;;;26.08;6.22;;;9.90;99.90;;;;;;4990812;28;20042;-73
2024/01/22 10:51:10;;;;;;;29.85;5.38;;;9.90;99.90;;;;;;4990042;28;20404;-73
2024/01/22 10:53:37;;;;;;;32.55;5.88;;;10.00;99.90;;;;;;4994948;28;20080;-74
2024/01/22 10:56:17;;;;;;;27.88;5.30;;;9.90;99.90;;;;;;5016666;28;20185;-73
2024/01/22 10:58:44;;;;;;;37.38;6.47;;;10.00;99.90;;;;;;5023887;28;20500;-74
2024/01/22 11:01:18;;;;;;;29.67;5.70;;;10.10;99.90;;;;;;5013610;28;20549;-74
2024/01/22 11:03:48;;;;;;;36.28;6.32;;;10.10;99.90;;;;;;4984622;28;20103;-74
2024/01/22 11:06:24;;;;;;;32.85;6.28;;;10.10;99.90;;;;;;4988436;28;20037;-74
2024/01/22 11:08:55;;;;;;;31.60;6.05;;;10.10;99.90;;;;;;4998659;28;20140;-73
2024/01/22 11:11:25;;;;;;;30.30;6.50;;;10.20;99.90;;;;;;5001429;28;20532;-73
2024/01/22 11:13:55;;;;;;;35.03;6.97;;;10.30;99.90;;;;;;4996107;28;20045;-73
2024/01/22 11:16:22;;;;;;;31.15;6.65;;;10.30;99.90;;;;;;4986682;28;20045;-74
2024/01/22 11:19:03;;;;;;;36.75;6.30;;;10.40;99.90;;;;;;4994130;28;20056;-73
2024/01/22 11:21:34;;;;;;;25.95;5.05;;;10.40;99.90;;;;;;4998401;28;20112;-73
2024/01/22 11:24:04;;;;;;;33.70;5.57;;;10.40;99.90;;;;;;5000220;28;20034;-73
2024/01/22 11:26:29;;;;;;;24.38;5.03;;;10.30;99.90;;;;;;5002410;28;20042;-74
2024/01/22 11:29:08;;;;;;;23.02;4.78;;;10.40;99.90;;;;;;5003816;28;20265;-74
2024/01/22 11:31:35;;;;;;;22.30;5.13;;;10.40;99.90;;;;;;5007766;28;20117;-73
2024/01/22 11:34:03;;;;;;;28.98;4.20;;;10.40;99.90;;;;;;5034676;28;20049;-73
2024/01/22 11:36:52;;;;;;;26.23;4.80;;;10.40;99.90;;;;;;5004719;28;20046;-74
2024/01/22 11:39:41;;;;;;;26.77;4.88;;;10.40;99.90;;;;;;4999059;28;20056;-73
2024/01/22 11:42:16;;;;;;;20.38;4.20;;;10.50;99.90;;;;;;5007287;28;20432;-73
2024/01/22 11:44:43;;;;;;;17.98;4.25;;;10.40;99.90;;;;;;5003271;28;20345;-73
2024/01/22 11:47:10;;;;;;;23.95;4.95;;;10.50;99.90;;;;;;4991796;28;20037;-73
2024/01/22 11:49:36;;;;;;;19.70;3.97;;;10.60;99.90;;;;;;4998172;28;20038;-73
2024/01/22 11:52:21;;;;;;;24.30;4.20;;;10.60;99.90;;;;;;4989911;28;20646;-73
2024/01/22 11:54:58;;;;;;;21.48;5.07;;;10.70;99.90;;;;;;5006141;28;20068;-73
2024/01/22 11:57:25;;;;;;;20.25;5.10;;;10.60;99.90;;;;;;4987988;28;20046;-73
2024/01/22 12:00:04;;;;;;;22.15;4.07;;;10.60;99.90;;;;;;5001855;28;20042;-73
2024/01/22 12:02:34;;;;;;;27.25;5.00;;;10.50;99.90;;;;;;4984591;28;20058;-73
2024/01/22 12:05:04;;;;;;;21.15;3.67;;;10.50;99.90;;;;;;5001627;28;20077;-73
2024/01/22 12:07:34;;;;;;;16.52;4.03;;;10.40;99.90;;;;;;5021017;28;20050;-73
2024/01/22 12:10:00;;;;;;;15.95;3.67;;;10.40;99.90;;;;;;4999639;28;20046;-73
2024/01/22 12:12:26;;;;;;;19.38;3.83;;;10.40;99.90;;;;;;4996972;28;20096;-73
2024/01/22 12:14:57;;;;;;;23.75;3.83;;;10.40;99.90;;;;;;4999163;28;20406;-73
2024/01/22 12:17:23;;;;;;;18.45;3.85;;;10.40;99.90;;;;;;5009167;28;20119;-73
2024/01/22 12:19:56;;;;;;;17.42;3.67;;;10.30;99.90;;;;;;4997924;28;20047;-73
2024/01/22 12:22:23;;;;;;;17.60;3.80;;;10.30;99.90;;;;;;4998613;28;20045;-73
2024/01/22 12:25:14;;;;;;;24.30;4.07;;;10.30;99.90;;;;;;4983853;28;20045;-73
2024/01/22 12:27:40;;;;;;;18.25;3.83;;;10.40;99.90;;;;;;4978860;28;20173;-73
2024/01/22 12:30:14;;;;;;;17.95;4.50;;;10.30;99.90;;;;;;5017142;28;20692;-73
2024/01/22 12:32:49;;;;;;;17.92;3.97;;;10.30;99.90;;;;;;4983397;28;20084;-73
2024/01/22 12:35:15;;;;;;;17.15;4.07;;;10.30;99.90;;;;;;4983176;28;20132;-73
2024/01/22 12:37:41;;;;;;;19.35;4.35;;;10.30;99.90;;;;;;4981524;28;20176;-74
2024/01/22 12:40:16;;;;;;;18.40;3.60;;;10.30;99.90;;;;;;5030225;28;20520;-73
2024/01/22 12:42:46;;;;;;;16.17;4.15;;;10.30;99.90;;;;;;5002510;28;20037;-73
2024/01/22 12:45:14;;;;;;;15.27;3.70;;;10.30;99.90;;;;;;4982367;28;20068;-73
2024/01/22 12:47:40;;;;;;;19.63;3.80;;;10.30;99.90;;;;;;4982308;28;20528;-73